sensor_id;sensor_type;location;lat;lon;timestamp;temperature;humidity
792;DHT22;379;49.022;12.148;2023-05-29T00:01:58;12.70;69.10
792;DHT22;379;49.022;12.148;2023-05-29T00:04:25;12.70;69.10
792;DHT22;379;49.022;12.148;2023-05-29T00:06:52;12.60;68.60
792;DHT22;379;49.022;12.148;2023-05-29T00:09:18;12.70;69.10
792;DHT22;379;49.022;12.148;2023-05-29T00:11:46;12.50;69.40
792;DHT22;379;49.022;12.148;2023-05-29T00:14:17;12.50;70.00
792;DHT22;379;49.022;12.148;2023-05-29T00:16:45;12.50;70.40
792;DHT22;379;49.022;12.148;2023-05-29T00:19:12;12.40;70.20
792;DHT22;379;49.022;12.148;2023-05-29T00:21:39;12.30;70.50
792;DHT22;379;49.022;12.148;2023-05-29T00:24:06;12.30;71.20
792;DHT22;379;49.022;12.148;2023-05-29T00:26:32;12.30;71.00
792;DHT22;379;49.022;12.148;2023-05-29T00:29:00;12.30;71.20
792;DHT22;379;49.022;12.148;2023-05-29T00:31:27;12.30;71.40
792;DHT22;379;49.022;12.148;2023-05-29T00:33:54;12.30;71.30
792;DHT22;379;49.022;12.148;2023-05-29T00:36:21;12.30;71.40
792;DHT22;379;49.022;12.148;2023-05-29T00:38:48;12.30;71.30
792;DHT22;379;49.022;12.148;2023-05-29T00:41:15;12.30;71.30
792;DHT22;379;49.022;12.148;2023-05-29T00:43:42;12.20;71.10
792;DHT22;379;49.022;12.148;2023-05-29T00:46:13;12.20;71.00
792;DHT22;379;49.022;12.148;2023-05-29T00:48:41;12.30;70.80
792;DHT22;379;49.022;12.148;2023-05-29T00:51:08;12.30;70.80
792;DHT22;379;49.022;12.148;2023-05-29T00:53:36;12.40;70.50
792;DHT22;379;49.022;12.148;2023-05-29T00:56:04;12.40;70.30
792;DHT22;379;49.022;12.148;2023-05-29T00:58:31;12.40;70.20
792;DHT22;379;49.022;12.148;2023-05-29T01:00:58;12.30;70.20
792;DHT22;379;49.022;12.148;2023-05-29T01:03:26;12.30;70.30
792;DHT22;379;49.022;12.148;2023-05-29T01:05:53;12.40;70.00
792;DHT22;379;49.022;12.148;2023-05-29T01:08:21;12.50;69.70
792;DHT22;379;49.022;12.148;2023-05-29T01:10:50;12.40;69.70
792;DHT22;379;49.022;12.148;2023-05-29T01:13:22;12.30;70.10
792;DHT22;379;49.022;12.148;2023-05-29T01:15:54;12.30;70.30
792;DHT22;379;49.022;12.148;2023-05-29T01:18:30;12.20;70.50
792;DHT22;379;49.022;12.148;2023-05-29T01:21:03;12.00;70.60
792;DHT22;379;49.022;12.148;2023-05-29T01:23:47;11.90;71.80
792;DHT22;379;49.022;12.148;2023-05-29T01:29:13;11.70;73.40
792;DHT22;379;49.022;12.148;2023-05-29T01:31:42;11.50;73.80
792;DHT22;379;49.022;12.148;2023-05-29T01:34:10;11.40;74.40
792;DHT22;379;49.022;12.148;2023-05-29T01:36:36;11.30;74.60
792;DHT22;379;49.022;12.148;2023-05-29T01:39:03;11.30;74.60
792;DHT22;379;49.022;12.148;2023-05-29T01:41:31;11.20;74.40
792;DHT22;379;49.022;12.148;2023-05-29T01:44:00;11.10;74.90
792;DHT22;379;49.022;12.148;2023-05-29T01:46:30;11.10;74.90
792;DHT22;379;49.022;12.148;2023-05-29T01:48:56;11.10;74.90
792;DHT22;379;49.022;12.148;2023-05-29T01:51:23;11.00;75.00
792;DHT22;379;49.022;12.148;2023-05-29T01:53:50;10.90;75.20
792;DHT22;379;49.022;12.148;2023-05-29T01:56:17;10.90;75.50
792;DHT22;379;49.022;12.148;2023-05-29T01:58:44;10.80;75.90
792;DHT22;379;49.022;12.148;2023-05-29T02:01:11;10.80;76.40
792;DHT22;379;49.022;12.148;2023-05-29T02:03:40;10.80;76.50
792;DHT22;379;49.022;12.148;2023-05-29T02:06:06;10.70;76.50
792;DHT22;379;49.022;12.148;2023-05-29T02:08:33;10.70;77.20
792;DHT22;379;49.022;12.148;2023-05-29T02:11:00;10.70;77.30
792;DHT22;379;49.022;12.148;2023-05-29T02:13:26;10.70;78.00
792;DHT22;379;49.022;12.148;2023-05-29T02:15:53;10.60;78.20
792;DHT22;379;49.022;12.148;2023-05-29T02:18:20;10.60;78.30
792;DHT22;379;49.022;12.148;2023-05-29T02:20:48;10.60;78.60
792;DHT22;379;49.022;12.148;2023-05-29T02:23:15;10.50;78.90
792;DHT22;379;49.022;12.148;2023-05-29T02:25:42;10.40;79.40
792;DHT22;379;49.022;12.148;2023-05-29T02:28:09;10.40;79.70
792;DHT22;379;49.022;12.148;2023-05-29T02:30:35;10.30;80.00
792;DHT22;379;49.022;12.148;2023-05-29T02:33:02;10.20;80.20
792;DHT22;379;49.022;12.148;2023-05-29T02:35:29;10.20;80.60
792;DHT22;379;49.022;12.148;2023-05-29T02:37:57;10.10;80.80
792;DHT22;379;49.022;12.148;2023-05-29T02:40:24;10.10;80.90
792;DHT22;379;49.022;12.148;2023-05-29T02:42:50;10.10;81.10
792;DHT22;379;49.022;12.148;2023-05-29T02:45:17;10.00;81.10
792;DHT22;379;49.022;12.148;2023-05-29T02:47:44;10.00;81.50
792;DHT22;379;49.022;12.148;2023-05-29T02:50:11;10.00;81.70
792;DHT22;379;49.022;12.148;2023-05-29T02:52:40;10.00;81.80
792;DHT22;379;49.022;12.148;2023-05-29T02:55:08;9.90;82.90
792;DHT22;379;49.022;12.148;2023-05-29T02:57:35;9.80;82.90
792;DHT22;379;49.022;12.148;2023-05-29T03:00:03;9.70;83.00
792;DHT22;379;49.022;12.148;2023-05-29T03:02:31;9.60;83.30
792;DHT22;379;49.022;12.148;2023-05-29T03:04:58;9.50;84.00
792;DHT22;379;49.022;12.148;2023-05-29T03:07:26;9.40;84.50
792;DHT22;379;49.022;12.148;2023-05-29T03:09:52;9.30;85.00
792;DHT22;379;49.022;12.148;2023-05-29T03:12:20;9.30;85.40
792;DHT22;379;49.022;12.148;2023-05-29T03:14:47;9.20;85.70
792;DHT22;379;49.022;12.148;2023-05-29T03:17:14;9.20;86.30
792;DHT22;379;49.022;12.148;2023-05-29T03:19:41;9.10;86.70
792;DHT22;379;49.022;12.148;2023-05-29T03:22:07;9.10;87.10
792;DHT22;379;49.022;12.148;2023-05-29T03:24:34;9.10;88.00
792;DHT22;379;49.022;12.148;2023-05-29T03:27:01;9.20;88.60
792;DHT22;379;49.022;12.148;2023-05-29T03:29:31;9.20;88.50
792;DHT22;379;49.022;12.148;2023-05-29T03:31:57;9.30;89.00
792;DHT22;379;49.022;12.148;2023-05-29T03:34:24;9.40;88.60
792;DHT22;379;49.022;12.148;2023-05-29T03:36:52;9.40;88.40
792;DHT22;379;49.022;12.148;2023-05-29T03:39:18;9.40;88.10
792;DHT22;379;49.022;12.148;2023-05-29T03:41:45;9.40;87.80
792;DHT22;379;49.022;12.148;2023-05-29T03:44:12;9.50;88.00
792;DHT22;379;49.022;12.148;2023-05-29T03:46:40;9.40;88.00
792;DHT22;379;49.022;12.148;2023-05-29T03:49:07;9.40;88.20
792;DHT22;379;49.022;12.148;2023-05-29T03:51:34;9.50;88.50
792;DHT22;379;49.022;12.148;2023-05-29T03:54:00;9.50;89.00
792;DHT22;379;49.022;12.148;2023-05-29T03:56:27;9.60;89.30
792;DHT22;379;49.022;12.148;2023-05-29T03:58:54;9.60;89.40
792;DHT22;379;49.022;12.148;2023-05-29T04:01:21;9.60;89.10
792;DHT22;379;49.022;12.148;2023-05-29T04:03:49;9.70;88.70
792;DHT22;379;49.022;12.148;2023-05-29T04:06:16;9.80;88.00
792;DHT22;379;49.022;12.148;2023-05-29T04:08:43;9.90;87.40
792;DHT22;379;49.022;12.148;2023-05-29T04:11:10;9.90;86.60
792;DHT22;379;49.022;12.148;2023-05-29T04:13:39;10.00;85.20
792;DHT22;379;49.022;12.148;2023-05-29T04:16:07;10.10;84.80
792;DHT22;379;49.022;12.148;2023-05-29T04:18:34;10.20;84.10
792;DHT22;379;49.022;12.148;2023-05-29T04:21:02;10.30;83.60
792;DHT22;379;49.022;12.148;2023-05-29T04:23:28;10.40;83.10
792;DHT22;379;49.022;12.148;2023-05-29T04:25:55;10.60;82.50
792;DHT22;379;49.022;12.148;2023-05-29T04:28:22;10.90;81.40
792;DHT22;379;49.022;12.148;2023-05-29T04:30:49;11.10;80.20
792;DHT22;379;49.022;12.148;2023-05-29T04:33:17;11.40;79.40
792;DHT22;379;49.022;12.148;2023-05-29T04:35:46;11.60;78.60
792;DHT22;379;49.022;12.148;2023-05-29T04:38:15;11.70;77.40
792;DHT22;379;49.022;12.148;2023-05-29T04:40:42;11.90;77.10
792;DHT22;379;49.022;12.148;2023-05-29T04:43:09;12.00;77.20
792;DHT22;379;49.022;12.148;2023-05-29T04:45:36;12.20;76.10
792;DHT22;379;49.022;12.148;2023-05-29T04:48:03;12.40;75.40
792;DHT22;379;49.022;12.148;2023-05-29T04:50:30;12.50;74.20
792;DHT22;379;49.022;12.148;2023-05-29T04:52:57;12.60;73.60
792;DHT22;379;49.022;12.148;2023-05-29T04:55:25;12.70;73.40
792;DHT22;379;49.022;12.148;2023-05-29T04:57:53;12.70;73.10
792;DHT22;379;49.022;12.148;2023-05-29T05:00:20;13.00;73.70
792;DHT22;379;49.022;12.148;2023-05-29T05:02:47;13.30;73.50
792;DHT22;379;49.022;12.148;2023-05-29T05:05:14;13.70;73.70
792;DHT22;379;49.022;12.148;2023-05-29T05:07:40;14.10;72.70
792;DHT22;379;49.022;12.148;2023-05-29T05:10:08;14.60;70.90
792;DHT22;379;49.022;12.148;2023-05-29T05:12:36;15.00;69.70
792;DHT22;379;49.022;12.148;2023-05-29T05:15:04;15.50;69.20
792;DHT22;379;49.022;12.148;2023-05-29T05:17:31;15.90;67.90
792;DHT22;379;49.022;12.148;2023-05-29T05:19:57;16.20;66.50
792;DHT22;379;49.022;12.148;2023-05-29T05:22:24;16.30;66.10
792;DHT22;379;49.022;12.148;2023-05-29T05:24:51;16.60;65.50
792;DHT22;379;49.022;12.148;2023-05-29T05:27:19;16.90;64.10
792;DHT22;379;49.022;12.148;2023-05-29T05:29:47;17.20;62.30
792;DHT22;379;49.022;12.148;2023-05-29T05:32:14;17.20;61.00
792;DHT22;379;49.022;12.148;2023-05-29T05:34:41;17.20;59.90
792;DHT22;379;49.022;12.148;2023-05-29T05:37:08;17.10;60.20
792;DHT22;379;49.022;12.148;2023-05-29T05:39:35;17.00;60.20
792;DHT22;379;49.022;12.148;2023-05-29T05:42:02;17.00;60.70
792;DHT22;379;49.022;12.148;2023-05-29T05:44:29;17.20;60.30
792;DHT22;379;49.022;12.148;2023-05-29T05:46:57;17.30;60.00
792;DHT22;379;49.022;12.148;2023-05-29T05:49:24;17.50;59.80
792;DHT22;379;49.022;12.148;2023-05-29T05:51:50;17.70;59.30
792;DHT22;379;49.022;12.148;2023-05-29T05:54:17;18.10;58.60
792;DHT22;379;49.022;12.148;2023-05-29T05:56:44;18.40;57.80
792;DHT22;379;49.022;12.148;2023-05-29T05:59:10;18.40;57.10
792;DHT22;379;49.022;12.148;2023-05-29T06:01:37;18.30;56.80
792;DHT22;379;49.022;12.148;2023-05-29T06:04:06;18.20;56.90
792;DHT22;379;49.022;12.148;2023-05-29T06:06:32;18.30;57.50
792;DHT22;379;49.022;12.148;2023-05-29T06:08:59;18.50;57.10
792;DHT22;379;49.022;12.148;2023-05-29T06:11:26;18.60;57.30
792;DHT22;379;49.022;12.148;2023-05-29T06:13:53;18.90;57.20
792;DHT22;379;49.022;12.148;2023-05-29T06:16:20;19.10;56.20
792;DHT22;379;49.022;12.148;2023-05-29T06:18:47;19.20;55.70
792;DHT22;379;49.022;12.148;2023-05-29T06:21:15;19.50;55.70
792;DHT22;379;49.022;12.148;2023-05-29T06:23:41;19.70;55.30
792;DHT22;379;49.022;12.148;2023-05-29T06:26:08;19.90;54.40
792;DHT22;379;49.022;12.148;2023-05-29T06:28:35;20.00;54.20
792;DHT22;379;49.022;12.148;2023-05-29T06:31:02;20.20;53.90
792;DHT22;379;49.022;12.148;2023-05-29T06:33:29;20.60;54.10
792;DHT22;379;49.022;12.148;2023-05-29T06:35:56;20.90;52.80
792;DHT22;379;49.022;12.148;2023-05-29T06:38:24;21.20;51.70
792;DHT22;379;49.022;12.148;2023-05-29T06:40:50;21.20;51.40
792;DHT22;379;49.022;12.148;2023-05-29T06:43:17;21.20;51.40
792;DHT22;379;49.022;12.148;2023-05-29T06:45:44;21.30;52.10
792;DHT22;379;49.022;12.148;2023-05-29T06:48:10;21.70;51.40
792;DHT22;379;49.022;12.148;2023-05-29T06:50:37;21.90;51.50
792;DHT22;379;49.022;12.148;2023-05-29T06:53:04;22.30;51.20
792;DHT22;379;49.022;12.148;2023-05-29T06:55:32;22.80;50.60
792;DHT22;379;49.022;12.148;2023-05-29T06:57:59;23.30;49.30
792;DHT22;379;49.022;12.148;2023-05-29T07:00:26;23.70;49.30
792;DHT22;379;49.022;12.148;2023-05-29T07:02:54;24.00;46.80
792;DHT22;379;49.022;12.148;2023-05-29T07:05:21;24.30;47.50
792;DHT22;379;49.022;12.148;2023-05-29T07:07:48;24.70;45.50
792;DHT22;379;49.022;12.148;2023-05-29T07:10:15;24.80;45.30
792;DHT22;379;49.022;12.148;2023-05-29T07:12:43;24.60;45.20
792;DHT22;379;49.022;12.148;2023-05-29T07:15:10;24.80;45.00
792;DHT22;379;49.022;12.148;2023-05-29T07:17:37;25.00;44.80
792;DHT22;379;49.022;12.148;2023-05-29T07:20:05;25.00;44.30
792;DHT22;379;49.022;12.148;2023-05-29T07:22:33;25.20;43.30
792;DHT22;379;49.022;12.148;2023-05-29T07:25:00;25.30;43.90
792;DHT22;379;49.022;12.148;2023-05-29T07:27:27;25.50;43.60
792;DHT22;379;49.022;12.148;2023-05-29T07:29:55;26.10;41.50
792;DHT22;379;49.022;12.148;2023-05-29T07:32:22;26.50;40.60
792;DHT22;379;49.022;12.148;2023-05-29T07:34:49;27.00;39.60
792;DHT22;379;49.022;12.148;2023-05-29T07:37:16;27.60;39.80
792;DHT22;379;49.022;12.148;2023-05-29T07:39:44;28.10;35.90
792;DHT22;379;49.022;12.148;2023-05-29T07:42:11;28.50;36.00
792;DHT22;379;49.022;12.148;2023-05-29T07:44:38;28.40;36.10
792;DHT22;379;49.022;12.148;2023-05-29T07:47:08;28.00;36.20
792;DHT22;379;49.022;12.148;2023-05-29T07:49:35;27.80;36.50
792;DHT22;379;49.022;12.148;2023-05-29T07:52:02;27.30;35.90
792;DHT22;379;49.022;12.148;2023-05-29T07:54:30;27.00;36.70
792;DHT22;379;49.022;12.148;2023-05-29T07:56:58;26.80;37.10
792;DHT22;379;49.022;12.148;2023-05-29T07:59:24;27.00;35.90
792;DHT22;379;49.022;12.148;2023-05-29T08:01:51;27.00;35.20
792;DHT22;379;49.022;12.148;2023-05-29T08:04:19;26.80;35.30
792;DHT22;379;49.022;12.148;2023-05-29T08:06:46;26.70;35.60
792;DHT22;379;49.022;12.148;2023-05-29T08:09:13;26.40;34.80
792;DHT22;379;49.022;12.148;2023-05-29T08:11:39;26.00;35.90
792;DHT22;379;49.022;12.148;2023-05-29T08:14:06;25.80;36.90
792;DHT22;379;49.022;12.148;2023-05-29T08:16:33;25.70;36.80
792;DHT22;379;49.022;12.148;2023-05-29T08:19:00;25.40;37.10
792;DHT22;379;49.022;12.148;2023-05-29T08:21:28;25.30;37.20
792;DHT22;379;49.022;12.148;2023-05-29T08:23:54;25.00;37.10
792;DHT22;379;49.022;12.148;2023-05-29T08:26:21;24.80;37.50
792;DHT22;379;49.022;12.148;2023-05-29T08:28:48;24.40;37.30
792;DHT22;379;49.022;12.148;2023-05-29T08:31:15;23.70;38.70
792;DHT22;379;49.022;12.148;2023-05-29T08:33:42;23.30;39.50
792;DHT22;379;49.022;12.148;2023-05-29T08:36:09;22.90;40.40
792;DHT22;379;49.022;12.148;2023-05-29T08:38:37;22.60;41.00
792;DHT22;379;49.022;12.148;2023-05-29T08:41:04;22.60;42.00
792;DHT22;379;49.022;12.148;2023-05-29T08:43:34;22.70;40.70
792;DHT22;379;49.022;12.148;2023-05-29T08:46:02;22.50;42.00
792;DHT22;379;49.022;12.148;2023-05-29T08:48:30;22.40;42.30
792;DHT22;379;49.022;12.148;2023-05-29T08:50:58;22.10;41.80
792;DHT22;379;49.022;12.148;2023-05-29T08:53:25;22.00;42.80
792;DHT22;379;49.022;12.148;2023-05-29T08:55:53;22.10;42.90
792;DHT22;379;49.022;12.148;2023-05-29T08:58:21;22.10;41.80
792;DHT22;379;49.022;12.148;2023-05-29T09:00:49;21.90;42.00
792;DHT22;379;49.022;12.148;2023-05-29T09:03:16;21.90;41.60
792;DHT22;379;49.022;12.148;2023-05-29T09:05:45;21.90;42.10
792;DHT22;379;49.022;12.148;2023-05-29T09:08:13;22.00;41.80
792;DHT22;379;49.022;12.148;2023-05-29T09:10:41;22.10;41.90
792;DHT22;379;49.022;12.148;2023-05-29T09:13:10;22.10;41.30
792;DHT22;379;49.022;12.148;2023-05-29T09:15:37;21.90;41.10
792;DHT22;379;49.022;12.148;2023-05-29T09:18:05;21.80;42.10
792;DHT22;379;49.022;12.148;2023-05-29T09:20:33;21.80;42.60
792;DHT22;379;49.022;12.148;2023-05-29T09:23:00;22.00;43.20
792;DHT22;379;49.022;12.148;2023-05-29T09:25:29;22.10;43.00
792;DHT22;379;49.022;12.148;2023-05-29T09:27:59;22.10;42.20
792;DHT22;379;49.022;12.148;2023-05-29T09:30:38;22.10;42.10
792;DHT22;379;49.022;12.148;2023-05-29T09:33:05;22.10;41.70
792;DHT22;379;49.022;12.148;2023-05-29T09:35:34;22.10;42.40
792;DHT22;379;49.022;12.148;2023-05-29T09:38:01;22.30;44.60
792;DHT22;379;49.022;12.148;2023-05-29T09:40:30;22.50;43.70
792;DHT22;379;49.022;12.148;2023-05-29T09:43:02;22.70;40.90
792;DHT22;379;49.022;12.148;2023-05-29T09:45:30;22.70;39.40
792;DHT22;379;49.022;12.148;2023-05-29T09:47:58;22.70;39.70
792;DHT22;379;49.022;12.148;2023-05-29T09:50:26;22.60;38.60
792;DHT22;379;49.022;12.148;2023-05-29T09:52:55;22.70;39.70
792;DHT22;379;49.022;12.148;2023-05-29T09:55:23;22.50;39.20
792;DHT22;379;49.022;12.148;2023-05-29T09:57:53;22.50;39.20
792;DHT22;379;49.022;12.148;2023-05-29T10:00:20;22.50;39.70
792;DHT22;379;49.022;12.148;2023-05-29T10:02:48;22.60;40.00
792;DHT22;379;49.022;12.148;2023-05-29T10:05:16;22.50;39.40
792;DHT22;379;49.022;12.148;2023-05-29T10:07:44;22.40;39.60
792;DHT22;379;49.022;12.148;2023-05-29T10:10:13;22.30;38.90
792;DHT22;379;49.022;12.148;2023-05-29T10:12:44;22.20;39.00
792;DHT22;379;49.022;12.148;2023-05-29T10:15:14;22.10;39.70
792;DHT22;379;49.022;12.148;2023-05-29T10:17:49;22.10;39.80
792;DHT22;379;49.022;12.148;2023-05-29T10:20:20;22.20;39.90
792;DHT22;379;49.022;12.148;2023-05-29T10:22:49;22.20;40.40
792;DHT22;379;49.022;12.148;2023-05-29T10:25:19;22.20;40.30
792;DHT22;379;49.022;12.148;2023-05-29T10:27:47;22.20;40.80
792;DHT22;379;49.022;12.148;2023-05-29T10:30:21;22.10;40.50
792;DHT22;379;49.022;12.148;2023-05-29T10:32:59;22.00;40.10
792;DHT22;379;49.022;12.148;2023-05-29T10:35:36;21.80;40.10
792;DHT22;379;49.022;12.148;2023-05-29T10:38:11;21.80;40.10
792;DHT22;379;49.022;12.148;2023-05-29T10:40:38;21.90;40.40
792;DHT22;379;49.022;12.148;2023-05-29T10:43:05;21.90;39.50
792;DHT22;379;49.022;12.148;2023-05-29T10:45:48;21.90;39.90
792;DHT22;379;49.022;12.148;2023-05-29T10:48:49;22.00;40.40
792;DHT22;379;49.022;12.148;2023-05-29T10:51:30;22.20;39.60
792;DHT22;379;49.022;12.148;2023-05-29T10:53:58;22.30;39.30
792;DHT22;379;49.022;12.148;2023-05-29T10:56:28;22.40;38.40
792;DHT22;379;49.022;12.148;2023-05-29T10:58:58;22.60;38.50
792;DHT22;379;49.022;12.148;2023-05-29T11:01:28;22.60;36.60
792;DHT22;379;49.022;12.148;2023-05-29T11:04:28;22.50;37.50
792;DHT22;379;49.022;12.148;2023-05-29T11:06:58;22.60;37.70
792;DHT22;379;49.022;12.148;2023-05-29T11:09:27;22.50;36.70
792;DHT22;379;49.022;12.148;2023-05-29T11:12:12;22.40;37.20
792;DHT22;379;49.022;12.148;2023-05-29T11:14:45;22.30;38.50
792;DHT22;379;49.022;12.148;2023-05-29T11:17:32;22.40;38.80
792;DHT22;379;49.022;12.148;2023-05-29T11:20:02;22.50;37.90
792;DHT22;379;49.022;12.148;2023-05-29T11:22:41;22.50;37.20
792;DHT22;379;49.022;12.148;2023-05-29T11:25:11;22.50;38.00
792;DHT22;379;49.022;12.148;2023-05-29T11:27:40;22.50;36.60
792;DHT22;379;49.022;12.148;2023-05-29T11:30:07;22.60;37.50
792;DHT22;379;49.022;12.148;2023-05-29T11:32:36;22.60;37.80
792;DHT22;379;49.022;12.148;2023-05-29T11:35:07;22.50;38.50
792;DHT22;379;49.022;12.148;2023-05-29T11:37:36;22.50;37.00
792;DHT22;379;49.022;12.148;2023-05-29T11:40:06;22.50;38.00
792;DHT22;379;49.022;12.148;2023-05-29T11:42:33;22.60;39.00
792;DHT22;379;49.022;12.148;2023-05-29T11:45:10;22.70;38.80
792;DHT22;379;49.022;12.148;2023-05-29T11:47:51;22.80;39.40
792;DHT22;379;49.022;12.148;2023-05-29T11:50:19;22.70;39.00
792;DHT22;379;49.022;12.148;2023-05-29T11:52:47;22.70;39.40
792;DHT22;379;49.022;12.148;2023-05-29T11:55:14;22.80;36.00
792;DHT22;379;49.022;12.148;2023-05-29T11:57:41;23.00;35.30
792;DHT22;379;49.022;12.148;2023-05-29T12:00:13;23.10;35.40
792;DHT22;379;49.022;12.148;2023-05-29T12:02:40;23.10;34.30
792;DHT22;379;49.022;12.148;2023-05-29T12:05:08;23.20;32.90
792;DHT22;379;49.022;12.148;2023-05-29T12:07:35;23.10;33.00
792;DHT22;379;49.022;12.148;2023-05-29T12:10:14;23.10;34.10
792;DHT22;379;49.022;12.148;2023-05-29T12:12:42;23.10;34.60
792;DHT22;379;49.022;12.148;2023-05-29T12:15:09;23.20;35.60
792;DHT22;379;49.022;12.148;2023-05-29T12:17:37;23.30;36.20
792;DHT22;379;49.022;12.148;2023-05-29T12:20:05;23.30;36.20
792;DHT22;379;49.022;12.148;2023-05-29T12:22:35;23.30;36.20
792;DHT22;379;49.022;12.148;2023-05-29T12:25:06;23.30;36.20
792;DHT22;379;49.022;12.148;2023-05-29T12:27:36;23.20;35.90
792;DHT22;379;49.022;12.148;2023-05-29T12:30:08;23.20;34.40
792;DHT22;379;49.022;12.148;2023-05-29T12:32:37;23.10;33.70
792;DHT22;379;49.022;12.148;2023-05-29T12:35:11;23.10;34.20
792;DHT22;379;49.022;12.148;2023-05-29T12:37:43;23.10;34.20
792;DHT22;379;49.022;12.148;2023-05-29T12:40:13;23.20;35.40
792;DHT22;379;49.022;12.148;2023-05-29T12:42:42;23.30;37.10
792;DHT22;379;49.022;12.148;2023-05-29T12:45:09;23.40;37.50
792;DHT22;379;49.022;12.148;2023-05-29T12:47:36;23.30;37.70
792;DHT22;379;49.022;12.148;2023-05-29T12:50:19;23.30;38.20
792;DHT22;379;49.022;12.148;2023-05-29T12:52:52;23.30;38.40
792;DHT22;379;49.022;12.148;2023-05-29T12:55:19;23.30;38.20
792;DHT22;379;49.022;12.148;2023-05-29T12:57:47;23.20;38.30
792;DHT22;379;49.022;12.148;2023-05-29T13:00:14;23.30;39.20
792;DHT22;379;49.022;12.148;2023-05-29T13:02:41;23.40;39.40
792;DHT22;379;49.022;12.148;2023-05-29T13:05:08;23.60;39.00
792;DHT22;379;49.022;12.148;2023-05-29T13:07:35;23.50;37.40
792;DHT22;379;49.022;12.148;2023-05-29T13:10:02;23.60;36.90
792;DHT22;379;49.022;12.148;2023-05-29T13:12:29;23.50;37.60
792;DHT22;379;49.022;12.148;2023-05-29T13:14:57;23.40;38.10
792;DHT22;379;49.022;12.148;2023-05-29T13:17:23;23.40;38.90
792;DHT22;379;49.022;12.148;2023-05-29T13:19:50;23.50;38.30
792;DHT22;379;49.022;12.148;2023-05-29T13:22:17;23.50;38.50
792;DHT22;379;49.022;12.148;2023-05-29T13:24:44;23.60;37.30
792;DHT22;379;49.022;12.148;2023-05-29T13:27:11;23.60;38.00
792;DHT22;379;49.022;12.148;2023-05-29T13:29:39;23.70;37.60
792;DHT22;379;49.022;12.148;2023-05-29T13:32:08;23.70;36.90
792;DHT22;379;49.022;12.148;2023-05-29T13:34:35;23.80;36.50
792;DHT22;379;49.022;12.148;2023-05-29T13:37:01;23.70;37.10
792;DHT22;379;49.022;12.148;2023-05-29T13:39:28;23.70;37.10
792;DHT22;379;49.022;12.148;2023-05-29T13:41:55;23.60;37.70
792;DHT22;379;49.022;12.148;2023-05-29T13:44:22;23.70;37.00
792;DHT22;379;49.022;12.148;2023-05-29T13:46:48;23.70;37.10
792;DHT22;379;49.022;12.148;2023-05-29T13:49:17;23.80;37.30
792;DHT22;379;49.022;12.148;2023-05-29T13:51:44;23.90;36.80
792;DHT22;379;49.022;12.148;2023-05-29T13:54:12;23.80;36.70
792;DHT22;379;49.022;12.148;2023-05-29T13:56:39;23.80;35.70
792;DHT22;379;49.022;12.148;2023-05-29T13:59:06;23.70;35.30
792;DHT22;379;49.022;12.148;2023-05-29T14:01:33;23.70;35.10
792;DHT22;379;49.022;12.148;2023-05-29T14:04:00;23.70;35.50
792;DHT22;379;49.022;12.148;2023-05-29T14:06:28;23.70;36.00
792;DHT22;379;49.022;12.148;2023-05-29T14:08:55;23.80;36.20
792;DHT22;379;49.022;12.148;2023-05-29T14:11:22;23.90;36.00
792;DHT22;379;49.022;12.148;2023-05-29T14:13:49;24.00;36.30
792;DHT22;379;49.022;12.148;2023-05-29T14:16:16;24.10;36.40
792;DHT22;379;49.022;12.148;2023-05-29T14:18:42;24.10;35.80
792;DHT22;379;49.022;12.148;2023-05-29T14:21:09;24.10;36.40
792;DHT22;379;49.022;12.148;2023-05-29T14:23:38;24.00;37.00
792;DHT22;379;49.022;12.148;2023-05-29T14:26:05;24.00;35.10
792;DHT22;379;49.022;12.148;2023-05-29T14:28:32;24.00;34.40
792;DHT22;379;49.022;12.148;2023-05-29T14:30:59;24.00;34.30
792;DHT22;379;49.022;12.148;2023-05-29T14:33:26;24.10;34.40
792;DHT22;379;49.022;12.148;2023-05-29T14:35:52;24.10;34.70
792;DHT22;379;49.022;12.148;2023-05-29T14:38:19;24.10;34.10
792;DHT22;379;49.022;12.148;2023-05-29T14:40:47;24.10;34.00
792;DHT22;379;49.022;12.148;2023-05-29T14:43:14;24.10;33.30
792;DHT22;379;49.022;12.148;2023-05-29T14:45:41;24.00;33.00
792;DHT22;379;49.022;12.148;2023-05-29T14:48:08;24.00;33.10
792;DHT22;379;49.022;12.148;2023-05-29T14:50:35;24.00;33.60
792;DHT22;379;49.022;12.148;2023-05-29T14:53:02;24.00;33.00
792;DHT22;379;49.022;12.148;2023-05-29T14:55:29;24.00;33.20
792;DHT22;379;49.022;12.148;2023-05-29T14:57:58;24.10;33.70
792;DHT22;379;49.022;12.148;2023-05-29T15:00:25;24.00;32.20
792;DHT22;379;49.022;12.148;2023-05-29T15:02:52;24.00;32.50
792;DHT22;379;49.022;12.148;2023-05-29T15:05:19;24.00;32.10
792;DHT22;379;49.022;12.148;2023-05-29T15:07:46;24.00;33.00
792;DHT22;379;49.022;12.148;2023-05-29T15:10:12;24.10;33.40
792;DHT22;379;49.022;12.148;2023-05-29T15:12:39;24.10;32.90
792;DHT22;379;49.022;12.148;2023-05-29T15:15:08;24.20;33.60
792;DHT22;379;49.022;12.148;2023-05-29T15:17:35;24.20;33.20
792;DHT22;379;49.022;12.148;2023-05-29T15:20:02;24.20;32.80
792;DHT22;379;49.022;12.148;2023-05-29T15:22:29;24.20;33.00
792;DHT22;379;49.022;12.148;2023-05-29T15:24:56;24.20;32.80
792;DHT22;379;49.022;12.148;2023-05-29T15:27:23;24.20;32.40
792;DHT22;379;49.022;12.148;2023-05-29T15:29:52;24.20;32.20
792;DHT22;379;49.022;12.148;2023-05-29T15:32:20;24.10;32.30
792;DHT22;379;49.022;12.148;2023-05-29T15:34:47;24.00;31.60
792;DHT22;379;49.022;12.148;2023-05-29T15:37:14;24.10;31.40
792;DHT22;379;49.022;12.148;2023-05-29T15:39:40;24.10;30.20
792;DHT22;379;49.022;12.148;2023-05-29T15:42:08;24.20;29.90
792;DHT22;379;49.022;12.148;2023-05-29T15:44:36;24.00;30.70
792;DHT22;379;49.022;12.148;2023-05-29T15:47:03;24.00;31.00
792;DHT22;379;49.022;12.148;2023-05-29T15:49:31;24.00;32.10
792;DHT22;379;49.022;12.148;2023-05-29T15:51:58;24.10;32.90
792;DHT22;379;49.022;12.148;2023-05-29T15:54:25;24.10;31.70
792;DHT22;379;49.022;12.148;2023-05-29T15:56:52;24.10;31.70
792;DHT22;379;49.022;12.148;2023-05-29T15:59:18;24.10;32.70
792;DHT22;379;49.022;12.148;2023-05-29T16:01:45;24.00;31.50
792;DHT22;379;49.022;12.148;2023-05-29T16:04:13;24.00;31.70
792;DHT22;379;49.022;12.148;2023-05-29T16:06:41;24.00;32.30
792;DHT22;379;49.022;12.148;2023-05-29T16:09:07;24.00;32.60
792;DHT22;379;49.022;12.148;2023-05-29T16:11:34;24.00;32.60
792;DHT22;379;49.022;12.148;2023-05-29T16:14:01;24.10;32.30
792;DHT22;379;49.022;12.148;2023-05-29T16:16:29;24.00;32.10
792;DHT22;379;49.022;12.148;2023-05-29T16:18:58;24.00;32.20
792;DHT22;379;49.022;12.148;2023-05-29T16:21:24;24.10;31.80
792;DHT22;379;49.022;12.148;2023-05-29T16:23:53;24.00;31.30
792;DHT22;379;49.022;12.148;2023-05-29T16:26:24;24.00;31.90
792;DHT22;379;49.022;12.148;2023-05-29T16:28:52;24.00;32.30